createdAt,value
2018-07-12T00:01:53.796Z,69.87
2018-07-12T00:04:20.815Z,69.77
2018-07-12T00:06:47.834Z,70.02
2018-07-12T00:09:14.878Z,69.90
2018-07-12T00:11:41.876Z,70.13
2018-07-12T00:14:08.907Z,70.31
2018-07-12T00:16:35.930Z,70.37
2018-07-12T00:19:02.930Z,70.42
2018-07-12T00:21:29.950Z,70.43
2018-07-12T00:23:56.959Z,70.79
2018-07-12T00:26:24.046Z,70.93
2018-07-12T00:28:51.125Z,69.94
2018-07-12T00:31:18.146Z,70.26
2018-07-12T00:33:45.218Z,70.46
2018-07-12T00:36:12.201Z,70.16
2018-07-12T00:38:39.609Z,71.07
2018-07-12T00:41:06.614Z,70.68
2018-07-12T00:43:33.627Z,70.20
2018-07-12T00:46:00.661Z,70.62
2018-07-12T00:48:27.646Z,70.84
2018-07-12T00:50:54.668Z,70.97
2018-07-12T00:53:22.048Z,71.29
2018-07-12T00:55:49.087Z,71.23
2018-07-12T00:58:16.086Z,71.29
2018-07-12T01:00:43.150Z,71.04
2018-07-12T01:03:10.135Z,71.06
2018-07-12T01:05:37.173Z,70.62
2018-07-12T01:08:04.189Z,70.67
2018-07-12T01:10:31.498Z,70.94
2018-07-12T01:12:58.534Z,71.35
2018-07-12T01:15:25.534Z,71.35
2018-07-12T01:17:52.631Z,70.77
2018-07-12T01:20:19.714Z,71.08
2018-07-12T01:22:46.735Z,71.30
2018-07-12T01:25:13.755Z,72.09
2018-07-12T01:27:40.755Z,71.48
2018-07-12T01:30:07.778Z,71.53
2018-07-12T01:32:34.778Z,71.80
2018-07-12T01:35:01.810Z,71.76
2018-07-12T01:37:28.820Z,72.05
2018-07-12T01:39:55.847Z,72.05
2018-07-12T01:42:22.847Z,71.96
2018-07-12T01:44:49.864Z,72.97
2018-07-12T01:47:16.886Z,72.18
2018-07-12T01:49:43.902Z,72.25
2018-07-12T01:52:10.918Z,72.23
2018-07-12T01:54:37.965Z,72.76
2018-07-12T01:57:04.989Z,72.75
2018-07-12T01:59:32.029Z,72.60
2018-07-12T02:01:59.055Z,72.89
2018-07-12T02:04:26.063Z,73.43
2018-07-12T02:06:53.401Z,73.27
2018-07-12T02:09:20.434Z,73.48
2018-07-12T02:11:47.451Z,73.04
2018-07-12T02:14:14.494Z,72.58
2018-07-12T02:16:41.503Z,72.26
2018-07-12T02:19:08.506Z,72.30
2018-07-12T02:21:35.549Z,73.35
2018-07-12T02:24:02.570Z,73.11
2018-07-12T02:26:29.586Z,72.90
2018-07-12T02:28:56.610Z,73.50
2018-07-12T02:31:23.649Z,73.41
2018-07-12T02:33:50.658Z,73.63
2018-07-12T02:36:17.701Z,73.91
2018-07-12T02:38:44.719Z,73.52
2018-07-12T02:41:11.730Z,73.69
2018-07-12T02:43:38.750Z,73.49
2018-07-12T02:46:05.757Z,74.21
2018-07-12T02:48:32.774Z,74.42
2018-07-12T02:50:59.779Z,74.30
2018-07-12T02:53:26.813Z,74.21
2018-07-12T02:55:53.835Z,74.24
2018-07-12T02:58:20.851Z,74.72
2018-07-12T03:00:47.883Z,74.74
2018-07-12T03:03:14.895Z,74.59
2018-07-12T03:05:41.899Z,75.12
2018-07-12T03:08:08.915Z,75.07
2018-07-12T03:10:35.926Z,74.71
2018-07-12T03:13:02.953Z,74.51
2018-07-12T03:15:29.986Z,74.66
2018-07-12T03:17:57.023Z,74.31
2018-07-12T03:20:24.046Z,74.03
2018-07-12T03:22:51.087Z,74.46
2018-07-12T03:25:18.096Z,74.36
2018-07-12T03:27:45.141Z,74.35
2018-07-12T03:30:12.163Z,74.45
2018-07-12T03:32:39.183Z,74.08
2018-07-12T03:35:06.221Z,73.92
2018-07-12T03:37:33.218Z,73.97
2018-07-12T03:40:00.351Z,74.26
2018-07-12T03:42:27.346Z,74.07
2018-07-12T03:44:54.355Z,74.67
2018-07-12T03:47:21.378Z,74.77
2018-07-12T03:49:48.394Z,74.81
2018-07-12T03:52:15.426Z,74.91
2018-07-12T03:54:42.482Z,74.38
2018-07-12T03:57:09.493Z,74.38
2018-07-12T03:59:36.499Z,74.63
2018-07-12T04:02:04.475Z,74.74
2018-07-12T04:04:31.518Z,74.87
2018-07-12T04:06:58.590Z,74.61
2018-07-12T04:09:25.607Z,74.38
2018-07-12T04:11:52.618Z,74.19
2018-07-12T04:14:19.629Z,74.27
2018-07-12T04:16:46.627Z,74.24
2018-07-12T04:19:13.646Z,73.92
2018-07-12T04:21:40.646Z,73.64
2018-07-12T04:24:07.706Z,73.63
2018-07-12T04:26:34.720Z,72.86
2018-07-12T04:29:01.812Z,72.17
2018-07-12T04:31:28.831Z,72.52
2018-07-12T04:33:55.854Z,72.53
2018-07-12T04:36:22.843Z,72.20
2018-07-12T04:38:49.846Z,71.68
2018-07-12T04:41:16.887Z,71.80
2018-07-12T04:43:43.921Z,70.89
2018-07-12T04:46:11.070Z,70.21
2018-07-12T04:48:38.086Z,70.43
2018-07-12T04:51:05.108Z,69.13
2018-07-12T04:53:32.137Z,67.78
2018-07-12T04:55:59.166Z,67.35
2018-07-12T04:58:26.230Z,67.80
2018-07-12T05:00:53.246Z,67.55
2018-07-12T05:03:20.261Z,68.44
2018-07-12T05:05:47.345Z,67.54
2018-07-12T05:08:14.413Z,67.60
2018-07-12T05:10:41.411Z,68.20
2018-07-12T05:13:08.430Z,68.33
2018-07-12T05:15:35.454Z,68.92
2018-07-12T05:18:02.493Z,69.56
2018-07-12T05:20:29.503Z,69.10
2018-07-12T05:22:56.529Z,69.50
2018-07-12T05:25:23.594Z,69.59
2018-07-12T05:27:50.614Z,69.54
2018-07-12T05:30:17.658Z,69.05
2018-07-12T05:32:44.673Z,68.30
2018-07-12T05:35:11.666Z,66.93
2018-07-12T05:37:39.330Z,65.92
2018-07-12T05:40:06.912Z,64.59
2018-07-12T05:42:34.479Z,62.87
2018-07-12T05:45:02.062Z,63.04
2018-07-12T05:47:29.643Z,61.87
2018-07-12T05:49:57.322Z,60.48
2018-07-12T05:52:25.001Z,58.75
2018-07-12T05:54:52.765Z,58.46
2018-07-12T05:57:20.479Z,58.05
2018-07-12T05:59:48.850Z,57.53
2018-07-12T06:02:18.870Z,57.05
2018-07-12T06:04:47.061Z,55.84
2018-07-12T06:07:19.289Z,55.69
2018-07-12T06:09:47.010Z,52.22
2018-07-12T06:12:14.731Z,52.95
2018-07-12T06:14:42.378Z,51.92
2018-07-12T06:17:10.046Z,52.30
2018-07-12T06:19:38.811Z,50.96
2018-07-12T06:22:06.494Z,50.54
2018-07-12T06:24:34.175Z,49.72
2018-07-12T06:27:01.846Z,48.76
2018-07-12T06:29:29.531Z,47.68
2018-07-12T06:31:57.186Z,48.38
2018-07-12T06:34:24.850Z,47.80
2018-07-12T06:36:52.573Z,47.47
2018-07-12T06:39:20.238Z,46.74
2018-07-12T06:41:47.942Z,46.04
2018-07-12T06:44:15.647Z,43.92
2018-07-12T06:46:43.358Z,43.96
2018-07-12T06:49:11.043Z,43.52
2018-07-12T06:51:38.754Z,42.75
2018-07-12T06:54:06.483Z,42.18
2018-07-12T06:56:34.202Z,41.32
2018-07-12T06:59:01.921Z,40.58
2018-07-12T07:01:29.594Z,40.20
2018-07-12T07:03:57.294Z,39.71
2018-07-12T07:06:24.995Z,38.44
2018-07-12T07:08:52.703Z,37.06
2018-07-12T07:11:20.406Z,36.59
2018-07-12T07:13:48.330Z,36.16
2018-07-12T07:16:16.027Z,34.85
2018-07-12T07:18:43.687Z,34.37
2018-07-12T07:21:11.398Z,33.53
2018-07-12T07:23:39.081Z,33.38
2018-07-12T07:26:06.958Z,32.80
2018-07-12T07:28:34.642Z,32.86
2018-07-12T07:31:02.310Z,32.23
2018-07-12T07:33:30.032Z,32.22
2018-07-12T07:35:57.735Z,31.50
2018-07-12T07:38:25.404Z,33.42
2018-07-12T07:40:53.073Z,32.84
2018-07-12T07:43:20.919Z,31.93
2018-07-12T07:45:48.520Z,31.70
2018-07-12T07:48:16.220Z,30.64
2018-07-12T07:50:43.927Z,30.06
2018-07-12T07:53:11.615Z,32.08
2018-07-12T07:55:39.290Z,30.90
2018-07-12T07:58:07.015Z,30.20
2018-07-12T08:00:34.691Z,28.70
2018-07-12T08:03:02.403Z,28.36
2018-07-12T08:05:30.211Z,28.80
2018-07-12T08:07:58.214Z,27.73
2018-07-12T08:10:25.878Z,28.52
2018-07-12T08:12:53.551Z,29.01
2018-07-12T08:15:21.224Z,28.92
2018-07-12T08:17:48.923Z,27.93
2018-07-12T08:20:16.632Z,27.24
2018-07-12T08:22:44.331Z,26.84
2018-07-12T08:25:12.006Z,25.11
2018-07-12T08:27:45.422Z,25.56
2018-07-12T08:30:13.149Z,25.81
2018-07-12T08:32:40.868Z,25.00
2018-07-12T08:35:08.570Z,25.71
2018-07-12T08:37:37.303Z,25.10
2018-07-12T08:40:05.013Z,24.73
2018-07-12T08:42:32.829Z,25.43
2018-07-12T08:45:00.414Z,25.82
2018-07-12T08:47:28.067Z,26.42
2018-07-12T08:49:55.757Z,27.77
2018-07-12T08:52:24.315Z,28.39
2018-07-12T08:54:51.976Z,29.06
2018-07-12T08:57:19.701Z,29.95
2018-07-12T08:59:47.382Z,31.07
2018-07-12T09:02:15.075Z,32.12
2018-07-12T09:04:42.763Z,31.80
2018-07-12T09:07:10.446Z,33.30
2018-07-12T09:09:38.166Z,32.16
2018-07-12T09:12:05.830Z,30.58
2018-07-12T09:14:33.544Z,30.19
2018-07-12T09:17:01.252Z,30.12
2018-07-12T09:19:28.979Z,29.22
2018-07-12T09:21:56.702Z,29.04
2018-07-12T09:24:24.568Z,29.17
2018-07-12T09:26:52.264Z,30.87
2018-07-12T09:29:19.979Z,31.60
2018-07-12T09:31:47.703Z,31.86
2018-07-12T09:34:15.390Z,33.20
2018-07-12T09:36:43.058Z,34.85
2018-07-12T09:39:10.733Z,36.40
2018-07-12T09:41:38.477Z,36.04
2018-07-12T09:44:06.251Z,36.68
2018-07-12T09:46:34.026Z,36.96
2018-07-12T09:49:01.702Z,36.01
2018-07-12T09:51:29.411Z,35.00
2018-07-12T09:53:57.019Z,35.37
2018-07-12T09:56:30.595Z,35.60
2018-07-12T09:58:58.191Z,35.23
2018-07-12T10:01:31.620Z,36.39
2018-07-12T10:03:59.309Z,36.55
2018-07-12T10:06:31.122Z,36.47
2018-07-12T10:09:04.146Z,36.21
2018-07-12T10:11:37.662Z,36.33
2018-07-12T10:14:11.111Z,35.95
2018-07-12T10:16:43.695Z,35.16
2018-07-12T10:19:11.391Z,35.44
2018-07-12T10:21:39.226Z,35.55
2018-07-12T10:24:06.899Z,35.88
2018-07-12T10:26:34.554Z,35.51
2018-07-12T10:29:02.317Z,36.11
2018-07-12T10:31:29.989Z,36.09
2018-07-12T10:33:57.706Z,36.08
2018-07-12T10:36:25.394Z,36.39
2018-07-12T10:38:53.066Z,37.30
2018-07-12T10:41:20.745Z,36.58
2018-07-12T10:43:48.419Z,35.71
2018-07-12T10:46:16.078Z,33.87
2018-07-12T10:48:44.163Z,33.71
2018-07-12T10:51:11.875Z,32.92
2018-07-12T10:53:39.552Z,32.72
2018-07-12T10:56:07.275Z,31.27
2018-07-12T10:58:34.934Z,30.02
2018-07-12T11:01:02.633Z,28.66
2018-07-12T11:03:30.407Z,28.86
2018-07-12T11:05:58.094Z,29.36
2018-07-12T11:08:25.772Z,29.59
2018-07-12T11:10:53.499Z,30.70
2018-07-12T11:13:26.822Z,31.23
2018-07-12T11:15:54.543Z,31.86
2018-07-12T11:18:22.170Z,31.58
2018-07-12T11:20:49.850Z,30.27
2018-07-12T11:23:17.580Z,31.80
2018-07-12T11:25:45.263Z,30.03
2018-07-12T11:28:12.961Z,31.62
2018-07-12T11:30:40.694Z,32.30
2018-07-12T11:33:14.169Z,32.47
2018-07-12T11:35:41.876Z,33.58
2018-07-12T11:38:09.590Z,34.06
2018-07-12T11:40:37.276Z,34.25
2018-07-12T11:43:05.139Z,34.28
2018-07-12T11:45:32.812Z,34.37
2018-07-12T11:48:00.525Z,33.55
2018-07-12T11:50:28.194Z,32.82
2018-07-12T11:52:55.956Z,32.34
2018-07-12T11:55:23.650Z,32.67
2018-07-12T11:57:51.301Z,33.96
2018-07-12T12:00:18.988Z,33.14
2018-07-12T12:02:46.683Z,34.24
2018-07-12T12:05:14.390Z,33.26
2018-07-12T12:07:42.067Z,33.07
2018-07-12T12:10:09.785Z,33.45
2018-07-12T12:12:37.484Z,31.59
2018-07-12T12:15:05.191Z,31.02
2018-07-12T12:17:32.918Z,31.30
2018-07-12T12:20:00.665Z,32.70
2018-07-12T12:22:28.358Z,31.82
2018-07-12T12:24:56.050Z,31.63
2018-07-12T12:27:23.767Z,32.59
2018-07-12T12:29:51.428Z,32.84
2018-07-12T12:32:19.151Z,32.11
2018-07-12T12:34:46.850Z,33.19
2018-07-12T12:37:14.596Z,34.70
2018-07-12T12:39:42.287Z,33.75
2018-07-12T12:42:10.003Z,35.10
2018-07-12T12:44:37.707Z,35.36
2018-07-12T12:47:05.427Z,35.58
2018-07-12T12:49:33.152Z,35.46
2018-07-12T12:52:00.865Z,37.17
2018-07-12T12:54:28.911Z,37.69
2018-07-12T12:56:56.631Z,38.05
2018-07-12T12:59:24.338Z,39.15
2018-07-12T13:01:52.987Z,40.27
2018-07-12T13:04:20.703Z,39.77
2018-07-12T13:06:48.410Z,39.59
2018-07-12T13:09:16.105Z,39.55
2018-07-12T13:11:43.820Z,40.31
2018-07-12T13:14:11.491Z,39.61
2018-07-12T13:16:39.216Z,39.21
2018-07-12T13:19:06.908Z,39.35
2018-07-12T13:21:34.590Z,38.79
2018-07-12T13:24:02.298Z,38.54
2018-07-12T13:26:30.000Z,39.23
2018-07-12T13:28:58.287Z,38.65
2018-07-12T13:31:25.967Z,38.46
2018-07-12T13:33:53.691Z,38.86
2018-07-12T13:36:21.395Z,39.71
2018-07-12T13:38:49.072Z,40.76
2018-07-12T13:41:16.773Z,40.07
2018-07-12T13:43:44.461Z,40.64
2018-07-12T13:46:12.126Z,41.19
2018-07-12T13:48:39.808Z,41.97
2018-07-12T13:51:07.546Z,41.86
2018-07-12T13:53:35.261Z,41.75
2018-07-12T13:56:02.958Z,42.31
2018-07-12T13:58:30.737Z,41.72
2018-07-12T14:00:58.395Z,42.35
2018-07-12T14:03:26.187Z,41.79
2018-07-12T14:05:53.874Z,42.68
2018-07-12T14:08:21.598Z,41.96
2018-07-12T14:10:49.345Z,41.18
2018-07-12T14:13:17.060Z,41.65
2018-07-12T14:15:44.738Z,41.38
2018-07-12T14:18:12.397Z,41.42
2018-07-12T14:20:40.197Z,41.32
2018-07-12T14:23:07.899Z,40.73
2018-07-12T14:25:35.610Z,41.21
2018-07-12T14:28:03.394Z,41.33
2018-07-12T14:30:31.062Z,40.79
2018-07-12T14:32:58.807Z,41.06
2018-07-12T14:35:26.466Z,41.83
2018-07-12T14:37:54.191Z,41.24
2018-07-12T14:40:21.890Z,40.91
2018-07-12T14:42:49.915Z,41.24
2018-07-12T14:45:17.621Z,41.74
2018-07-12T14:47:45.337Z,40.26
2018-07-12T14:50:13.040Z,41.42
2018-07-12T14:52:40.772Z,40.79
2018-07-12T14:55:08.527Z,40.60
2018-07-12T14:57:36.263Z,41.14
2018-07-12T15:00:04.239Z,40.29
2018-07-12T15:02:31.959Z,41.17
2018-07-12T15:05:00.559Z,41.67
2018-07-12T15:07:28.254Z,41.57
2018-07-12T15:09:56.593Z,41.03
2018-07-12T15:12:24.283Z,41.31
2018-07-12T15:14:52.200Z,42.19
2018-07-12T15:17:19.910Z,41.81
2018-07-12T15:19:47.589Z,41.37
2018-07-12T15:22:15.282Z,40.69
2018-07-12T15:24:43.096Z,40.05
2018-07-12T15:27:10.920Z,41.63
2018-07-12T15:29:38.823Z,42.52
2018-07-12T15:32:06.570Z,41.23
2018-07-12T15:34:34.282Z,40.81
2018-07-12T15:37:02.057Z,41.69
2018-07-12T15:39:29.747Z,40.98
2018-07-12T15:41:57.638Z,41.51
2018-07-12T15:44:25.312Z,40.32
2018-07-12T15:46:52.988Z,40.24
2018-07-12T15:49:20.708Z,40.43
2018-07-12T15:51:48.414Z,40.78
2018-07-12T15:54:16.392Z,39.89
2018-07-12T15:56:44.072Z,40.00
2018-07-12T15:59:11.786Z,40.39
2018-07-12T16:01:39.526Z,40.72
2018-07-12T16:04:07.251Z,40.52
2018-07-12T16:06:35.006Z,39.61
2018-07-12T16:09:04.075Z,40.67
2018-07-12T16:11:31.810Z,40.34
2018-07-12T16:13:59.503Z,40.05
2018-07-12T16:16:27.278Z,39.86
2018-07-12T16:18:55.001Z,40.28
2018-07-12T16:21:22.714Z,40.52
2018-07-12T16:23:50.390Z,40.02
2018-07-12T16:26:18.191Z,39.57
2018-07-12T16:28:45.884Z,39.38
2018-07-12T16:31:13.606Z,40.74
2018-07-12T16:33:41.287Z,40.37
2018-07-12T16:36:09.506Z,40.03
2018-07-12T16:38:37.211Z,40.74
2018-07-12T16:41:04.950Z,40.54
2018-07-12T16:43:32.644Z,40.79
2018-07-12T16:46:00.359Z,40.13
2018-07-12T16:48:28.105Z,41.28
2018-07-12T16:50:55.809Z,40.30
2018-07-12T16:53:23.512Z,39.90
2018-07-12T16:55:51.248Z,40.41
2018-07-12T16:58:19.937Z,39.76
2018-07-12T17:00:47.785Z,39.24
2018-07-12T17:03:15.511Z,39.55
2018-07-12T17:05:43.262Z,39.45
2018-07-12T17:08:10.967Z,39.53
2018-07-12T17:10:38.724Z,39.93
2018-07-12T17:13:06.435Z,39.58
2018-07-12T17:15:34.178Z,39.46
2018-07-12T17:18:02.799Z,39.98
2018-07-12T17:20:30.529Z,39.24
2018-07-12T17:22:58.251Z,41.49
2018-07-12T17:25:26.063Z,41.20
2018-07-12T17:27:53.751Z,41.25
2018-07-12T17:30:21.466Z,42.21
2018-07-12T17:32:49.221Z,42.72
2018-07-12T17:35:16.931Z,42.16
2018-07-12T17:37:44.636Z,42.62
2018-07-12T17:40:12.379Z,42.22
2018-07-12T17:42:40.081Z,42.33
2018-07-12T17:45:07.767Z,42.35
2018-07-12T17:47:35.544Z,42.77
2018-07-12T17:50:03.458Z,42.93
2018-07-12T17:52:31.168Z,43.84
2018-07-12T17:54:58.867Z,45.09
2018-07-12T17:57:26.564Z,45.76
2018-07-12T17:59:54.324Z,45.88
2018-07-12T18:02:22.087Z,45.50
2018-07-12T18:04:49.831Z,45.55
2018-07-12T18:07:17.564Z,46.25
2018-07-12T18:09:45.262Z,46.51
2018-07-12T18:12:13.216Z,46.23
2018-07-12T18:14:40.913Z,46.34
2018-07-12T18:17:08.666Z,46.48
2018-07-12T18:19:36.390Z,47.23
2018-07-12T18:22:04.176Z,47.40
2018-07-12T18:24:31.862Z,47.38
2018-07-12T18:26:59.905Z,47.20
2018-07-12T18:29:27.594Z,47.12
2018-07-12T18:31:55.622Z,46.88
2018-07-12T18:34:23.322Z,47.05
2018-07-12T18:36:51.295Z,46.76
2018-07-12T18:39:19.096Z,46.67
2018-07-12T18:41:46.842Z,46.93
2018-07-12T18:44:14.562Z,47.52
2018-07-12T18:46:42.627Z,47.04
2018-07-12T18:49:10.314Z,46.85
2018-07-12T18:51:38.026Z,47.03
2018-07-12T18:54:05.730Z,47.36
2018-07-12T18:56:33.402Z,46.99
2018-07-12T18:59:02.062Z,47.12
2018-07-12T19:01:29.779Z,47.23
2018-07-12T19:03:57.467Z,47.49
2018-07-12T19:06:25.147Z,47.50
2018-07-12T19:08:52.956Z,47.24
2018-07-12T19:11:20.631Z,47.59
2018-07-12T19:13:48.401Z,47.81
2018-07-12T19:16:16.559Z,47.61
2018-07-12T19:18:44.255Z,47.40
2018-07-12T19:21:11.987Z,48.05
2018-07-12T19:23:39.955Z,47.81
2018-07-12T19:26:07.693Z,47.85
2018-07-12T19:28:35.380Z,48.02
2018-07-12T19:31:03.267Z,48.36
2018-07-12T19:33:31.004Z,48.60
2018-07-12T19:35:58.666Z,48.67
2018-07-12T19:38:26.394Z,48.82
2018-07-12T19:40:54.158Z,49.25
2018-07-12T19:43:21.849Z,49.56
2018-07-12T19:45:49.567Z,49.43
2018-07-12T19:48:17.271Z,50.00
2018-07-12T19:50:44.985Z,51.38
2018-07-12T19:53:12.703Z,51.00
2018-07-12T19:55:40.438Z,51.38
2018-07-12T19:58:08.120Z,51.38
2018-07-12T20:00:35.845Z,52.42
2018-07-12T20:03:03.574Z,52.72
2018-07-12T20:05:31.307Z,53.02
2018-07-12T20:07:59.003Z,52.91
2018-07-12T20:10:26.710Z,54.18
2018-07-12T20:12:54.430Z,55.70
2018-07-12T20:15:22.192Z,56.33
2018-07-12T20:17:49.919Z,55.50
2018-07-12T20:20:17.660Z,56.49
2018-07-12T20:22:45.382Z,56.51
2018-07-12T20:25:13.138Z,56.39
2018-07-12T20:27:40.810Z,56.76
2018-07-12T20:30:08.655Z,56.87
2018-07-12T20:32:36.370Z,56.99
2018-07-12T20:35:04.139Z,56.98
2018-07-12T20:37:31.863Z,57.61
2018-07-12T20:39:59.602Z,57.96
2018-07-12T20:42:27.349Z,58.20
2018-07-12T20:44:55.036Z,58.67
2018-07-12T20:47:22.723Z,58.37
2018-07-12T20:49:51.016Z,58.67
2018-07-12T20:52:18.715Z,59.22
2018-07-12T20:54:46.491Z,59.79
2018-07-12T20:57:14.135Z,59.37
2018-07-12T20:59:41.847Z,59.56
2018-07-12T21:02:09.591Z,59.37
2018-07-12T21:04:37.422Z,59.00
2018-07-12T21:07:05.117Z,59.00
2018-07-12T21:09:32.869Z,59.40
2018-07-12T21:12:00.598Z,60.36
2018-07-12T21:14:28.277Z,60.42
2018-07-12T21:16:55.963Z,59.95
2018-07-12T21:19:23.906Z,61.16
2018-07-12T21:21:51.698Z,60.30
2018-07-12T21:24:19.406Z,60.79
2018-07-12T21:26:47.110Z,60.88
2018-07-12T21:29:14.804Z,60.67
2018-07-12T21:31:42.566Z,61.04
2018-07-12T21:34:10.295Z,61.10
2018-07-12T21:36:38.010Z,61.08
2018-07-12T21:39:06.767Z,61.28
2018-07-12T21:41:34.482Z,61.34
2018-07-12T21:44:02.183Z,61.34
2018-07-12T21:46:29.853Z,60.80
2018-07-12T21:48:57.538Z,60.92
2018-07-12T21:51:25.454Z,61.50
2018-07-12T21:53:53.145Z,62.04
2018-07-12T21:56:20.878Z,61.65
2018-07-12T21:58:48.566Z,61.44
2018-07-12T22:01:16.256Z,60.85
2018-07-12T22:03:44.038Z,61.33
2018-07-12T22:06:11.786Z,61.28
2018-07-12T22:08:39.418Z,61.69
2018-07-12T22:11:07.187Z,61.78
2018-07-12T22:13:36.118Z,61.68
2018-07-12T22:16:03.869Z,61.97
2018-07-12T22:18:32.199Z,62.52
2018-07-12T22:20:59.882Z,62.14
2018-07-12T22:23:27.555Z,62.50
2018-07-12T22:25:55.266Z,62.68
2018-07-12T22:28:22.975Z,62.84
2018-07-12T22:30:50.642Z,63.26
2018-07-12T22:33:18.326Z,63.04
2018-07-12T22:35:45.986Z,63.13
2018-07-12T22:38:13.688Z,62.77
2018-07-12T22:40:41.377Z,62.85
2018-07-12T22:43:09.031Z,63.16
2018-07-12T22:45:36.720Z,63.76
2018-07-12T22:48:04.440Z,63.64
2018-07-12T22:50:32.075Z,63.11
2018-07-12T22:52:59.761Z,63.40
2018-07-12T22:55:28.402Z,63.53
2018-07-12T22:57:56.065Z,63.50
2018-07-12T23:00:23.743Z,63.75
2018-07-12T23:02:51.437Z,64.36
2018-07-12T23:05:19.114Z,64.95
2018-07-12T23:07:46.834Z,64.99
2018-07-12T23:10:14.497Z,65.29
2018-07-12T23:12:42.166Z,65.25
2018-07-12T23:15:09.838Z,65.55
2018-07-12T23:17:37.513Z,65.15
2018-07-12T23:20:05.242Z,65.55
2018-07-12T23:22:32.931Z,64.84
2018-07-12T23:25:01.179Z,65.10
2018-07-12T23:27:28.859Z,65.31
2018-07-12T23:29:56.534Z,65.43
2018-07-12T23:32:24.193Z,65.23
2018-07-12T23:34:51.846Z,65.78
2018-07-12T23:37:19.539Z,65.80
2018-07-12T23:39:47.203Z,66.29
2018-07-12T23:42:15.205Z,66.49
2018-07-12T23:44:42.937Z,66.11
2018-07-12T23:47:10.618Z,66.70
2018-07-12T23:49:38.335Z,67.53
2018-07-12T23:52:06.099Z,66.85
2018-07-12T23:54:33.863Z,66.42
2018-07-12T23:57:01.533Z,66.57
2018-07-12T23:59:29.231Z,67.08
